AirNav   Advertisement
 
 1365 users online  

4NJ5 Raritan Center Heliport
Sayreville, New Jersey, USA

GOING TO SAYREVILLE?


FAA INFORMATION EFFECTIVE 20 JULY 2017

Location

FAA Identifier: 4NJ5
Lat/Long: 40-29-33.3740N / 074-31-16.5560W
40-29.556233N / 074-31.275933W
40.4926039 / -74.5212656
(estimated)
Elevation: 10 ft. / 3 m (estimated)
Variation: 12W (1985)
From city: 2 miles SW of SAYREVILLE, NJ
Time zone: UTC -4 (UTC -5 during Standard Time)
Zip code: 08873

Heliport Operations

Heliport use: Private use. Permission required prior to landing
Activation date: 09/1973
Control tower: no
ARTCC: NEW YORK CENTER
FSS: MILLVILLE FLIGHT SERVICE STATION
Attendance: MON-FRI 0800-1700
Wind indicator: yes
Segmented circle: no
Lights: FOR PERIMETER LGTS CALL 201-549-0665.

Heliport Communications

WX ASOS at SMQ (10 nm NW): 120.6 (908-722-2139)
WX AWOS-3 at LDJ (15 nm NE): 124.025 (908-862-7383)
WX ASOS at TTN (19 nm SW): 126.77 (609-538-8690)
WX AWOS-3 at MMU (19 nm N): PHONE 973-290-0135

Nearby radio navigation aids

VOR radial/distance  VOR name  Freq  Var
SBJr128/11.4SOLBERG VOR/DME112.9010W
RBVr006/17.5ROBBINSVILLE VORTAC113.8010W
COLr314/19.8COLTS NECK VOR/DME115.4011W
ARDr061/22.8YARDLEY VOR/DME108.2010W
BWZr154/22.9BROADWAY VOR/DME114.2011W
GXUr019/29.2MC GUIRE VORTAC110.6012W
CRIr267/29.5CANARSIE VOR/DME112.3011W
TEBr235/29.9TETERBORO VOR/DME108.4011W
PNEr052/(33.3)NORTH PHILADELPHIA VOR112.0010W
STWr163/34.1STILLWATER VOR/DME109.6011W
LGAr252/34.5LA GUARDIA VOR/DME113.1012W
SAXr190/34.5SPARTA VORTAC115.7011W
JFKr268/35.2KENNEDY VOR/DME115.9012W

 
NDB name  Hdg/Dist  Freq  Var  ID
CHATHAM209/15.525413WCAT -.-. .- -
LAKEHURST353/28.239611WNEL -. . .-..
BRIDGE273/29.541412WOGY --- --. -.--

Heliport Services

Airframe service: NONE
Powerplant service: NONE

Runway Information

Helipad H1

Dimensions: 300 x 100 ft. / 91 x 30 m
Surface: turf
Runway edge lights: PERIMETER LGTS.
Traffic pattern: leftleft

Heliport Ownership and Management from official FAA records

Ownership: Privately-owned
Owner: MIDDLESEX CO. MOSQUITO COMMISSION
200 PARSONAGE RD
EDISON, NJ 08820
Phone 201-549-0665
Manager: JOHN KRANZ
200 PARSONAGE RD
EDISON, NJ 08820
Phone 201-549-0665

Heliport Operational Statistics

Aircraft based on the field: 2
Helicopters: 2
    

Additional Remarks

A52-H1 CONTROLLING OBSTRUCTIONS: PLINES-UNMARKED AND UNLIGHTED.

Instrument Procedures

There are no published instrument procedures at 4NJ5.

Some nearby airports with instrument procedures:

47N - Central Jersey Regional Airport (4 nm NW)
39N - Princeton Airport (8 nm SW)
KSMQ - Somerset Airport (10 nm NW)
N51 - Solberg-Hunterdon Airport (11 nm NW)
3N6 - Old Bridge Airport (13 nm SE)
KLDJ - Linden Airport (15 nm NE)
N87 - Trenton-Robbinsville Airport (17 nm S)
KTTN - Trenton Mercer Airport (19 nm SW)
KMMU - Morristown Municipal Airport (19 nm N)
 
Loc | Ops | Rwys | IFR | FBO | Links
Com | Nav | Svcs | Stats | Notes


 
Area around 4NJ5 (Raritan Center Heliport)
 
Road maps at: MapQuest Bing Google
 
Aerial photo
No photo
 
Sectional chart

 
Airport distance calculator
Flying to Raritan Center Heliport? Find the distance to fly.

From to 4NJ5

Sunrise and sunset
Times for 28-Jul-2017
 Local
(UTC-4)
 Zulu
(UTC)
Morning civil twilight05:2109:21
Sunrise05:5209:52
Sunset20:1700:17
Evening civil twilight20:4800:48

Current date and time
Zulu (UTC)  28-Jul-2017 14:10:27
Local (UTC-4)  28-Jul-2017 10:10:27
 
METAR
KSMQ 
10nm NW 
ASOS 120.60 908-722-2139
281353Z AUTO 08004KT 9SM CLR 27/21 A2984 RMK AO2 SLP102 T02670206
KLDJ 
15nm NE 
281355Z AUTO 00000KT 10SM CLR 27/20 A2985 RMK AO2 T02680197
KMMU 
18nm N 
281350Z 04004KT 5SM BR SCT011 FEW150 BKN250 24/21 A2987
KTTN 
18nm SW 
ASOS 133.70 609-538-8690
281359Z 06006KT 8SM SCT011 26/21 A2985 RMK AO2 T02560211
KEWR 
20nm NE 
281351Z 36007KT 8SM FEW020 FEW130 BKN250 26/21 A2985 RMK AO2 SLP107 HAZE ALOFT VIS LWR NE-S T02610211
TAF
KTTN 
18nm SW 
281120Z 2812/2912 03004KT 3SM BR OVC003 TEMPO 2812/2813 2SM BR FM281300 04004KT P6SM OVC007 FM281400 05005KT P6SM BKN015 FM281600 08006KT P6SM SCT025 FM282300 10006KT P6SM VCSH OVC035 PROB30 2900/2903 5SM -TSRA OVC030CB FM290300 06007KT 3SM SHRA OVC015 PROB30 2903/2906 2SM TSRA OVC025CB FM290900 03009KT 6SM BR BKN035
KEWR 
20nm NE 
281139Z 2812/2918 VRB04KT P6SM FEW020 SCT120 SCT250 FM281400 05005KT P6SM SCT035 BKN250 FM281800 09008KT P6SM SCT040 BKN250 FM290000 05006KT P6SM SCT040 BKN130 FM290500 03008KT 6SM -RA BR BKN035 FM290800 03013G20KT 5SM -RA BR SCT015 OVC035 FM291100 03015G25KT 3SM -RA BR BKN020
NOTAMs
Click for the latest NOTAMs
NOTAMs are issued by the DoD/FAA and will open in a separate window not controlled by AirNav.

 

 
 

Would you like to see your business listed on this page?

 If your business provides an interesting product or service to pilots, flight crews, aircraft, or users of the Raritan Center Heliport, you should consider listing it here.  To start the listing process, click on the button below
 
Add a business
 

Other Pages about Raritan Center Heliport

Update a link
 
Copyright © AirNav, LLC. All rights reserved. Privacy Policy  Contact